This is the latest recevied weather packets stored in our database for station/object KN6WGU. If no packets are shown the sender has not sent any weather packets the latest 10 day(s).
| Time | Temp. | Humidity | Pressure | Rain* | Wind** | Luminosity | Snow |
|---|---|---|---|---|---|---|---|
| 1787539065 | 18.89° C | 75% | 1007.1 hPa | 0 mm | - | 0 W/m² | - |
| 1787538762 | 18.89° C | 77% | 1007.2 hPa | 0 mm | - | 0 W/m² | - |
| 1787538458 | 18.89° C | 77% | 1007 hPa | 0 mm | - | 0 W/m² | - |
| 1787538153 | 18.89° C | 77% | 1007.2 hPa | 0 mm | - | 0 W/m² | - |
| 1787537849 | 18.33° C | 79% | 1007.2 hPa | 0 mm | - | 0 W/m² | - |
| 1787537546 | 18.33° C | 81% | 1006.9 hPa | 0 mm | - | 0 W/m² | - |
| 1787537241 | 18.33° C | 81% | 1007.1 hPa | 0 mm | - | 0 W/m² | - |
| 1787536940 | 18.33° C | 81% | 1007 hPa | 0 mm | - | 0 W/m² | - |
| 1787536639 | 18.33° C | 81% | 1007.1 hPa | 0 mm | - | 0 W/m² | - |
| 1787536335 | 18.33° C | 80% | 1007.1 hPa | 0 mm | - | 0 W/m² | - |
| 1787536031 | 18.33° C | 82% | 1006.9 hPa | 0 mm | - | 0 W/m² | - |
| 1787535726 | 17.78° C | 82% | 1006.8 hPa | 0 mm | - | 0 W/m² | - |
| 1787535421 | 17.78° C | 81% | 1007 hPa | 0 mm | - | 0 W/m² | - |
| 1787535116 | 18.33° C | 81% | 1007 hPa | 0 mm | - | 0 W/m² | - |
| 1787534810 | 18.33° C | 81% | 1006.8 hPa | 0 mm | - | 0 W/m² | - |
| 1787534510 | 18.33° C | 82% | 1006.9 hPa | 0 mm | - | 0 W/m² | - |
| 1787534203 | 18.33° C | 81% | 1006.8 hPa | 0 mm | - | 0 W/m² | - |
| 1787533900 | 18.33° C | 79% | 1006.9 hPa | 0 mm | - | 0 W/m² | - |
| 1787533595 | 18.33° C | 80% | 1006.7 hPa | 0 mm | - | 0 W/m² | - |
| 1787533292 | 18.33° C | 82% | 1006.7 hPa | 0 mm | - | 0 W/m² | - |
| 1787532986 | 18.33° C | 82% | 1006.4 hPa | 0 mm | - | 0 W/m² | - |
| 1787532682 | 18.33° C | 82% | 1006.4 hPa | 0 mm | - | 0 W/m² | - |
| 1787532377 | 18.33° C | 81% | 1006.3 hPa | 0 mm | - | 0 W/m² | - |
| 1787532073 | 18.89° C | 80% | 1006.4 hPa | 0 mm | - | 0 W/m² | - |
| 1787531769 | 20.56° C | 74% | 1006.2 hPa | 0 mm | - | 0 W/m² | - |
* Rain latest hour (hover to see other rain measurements)
** Current wind speed in m/s (hover to see current wind gust speed)